Time;durP1;ratioP1;P1;durP2;ratioP2;P2;SDS_P1;SDS_P2;PMS_P1;PMS_P2;Temp;Humidity;BMP_temperature;BMP_pressure;BME280_temperature;BME280_humidity;BME280_pressure;Samples;Min_cycle;Max_cycle;Signal;HPM_P1;HPM_P2
2021/06/25 00:02:26;;;;;;;25.65;8.28;;;;;;;21.33;79.77;100777.86;1744687;82;21072;-67
2021/06/25 00:04:53;;;;;;;23.92;9.73;;;;;;;21.30;79.77;100774.69;1744880;82;20940;-68
2021/06/25 00:07:20;;;;;;;27.98;9.33;;;;;;;21.28;79.86;100781.50;1744665;82;20913;-68
2021/06/25 00:09:47;;;;;;;19.55;9.28;;;;;;;21.25;79.95;100781.80;1744518;82;20857;-69
2021/06/25 00:12:14;;;;;;;22.10;8.63;;;;;;;21.22;80.02;100777.30;1744739;82;20987;-68
2021/06/25 00:14:42;;;;;;;23.62;8.43;;;;;;;21.19;80.16;100771.78;1744525;81;21070;-68
2021/06/25 00:17:09;;;;;;;19.70;8.88;;;;;;;21.18;80.31;100777.27;1744837;81;21295;-68
2021/06/25 00:19:38;;;;;;;21.82;9.03;;;;;;;21.15;80.39;100772.27;1744664;80;20908;-68
2021/06/25 00:22:05;;;;;;;32.33;11.30;;;;;;;21.12;80.50;100769.38;1749041;80;21618;-68
2021/06/25 00:24:32;;;;;;;20.43;8.68;;;;;;;21.10;80.65;100768.73;1757988;81;20944;-69
2021/06/25 00:26:59;;;;;;;21.87;8.68;;;;;;;21.11;80.62;100763.72;1758028;81;21959;-67
2021/06/25 00:29:26;;;;;;;18.15;7.80;;;;;;;21.11;80.62;100761.89;1757914;81;20975;-69
2021/06/25 00:31:53;;;;;;;21.77;8.90;;;;;;;21.10;80.53;100758.89;1757971;81;20936;-68
2021/06/25 00:34:20;;;;;;;17.75;8.35;;;;;;;21.08;80.68;100754.21;1757687;81;21405;-68
2021/06/25 00:36:47;;;;;;;23.38;8.15;;;;;;;21.05;80.80;100751.02;1758095;80;20833;-68
2021/06/25 00:39:15;;;;;;;18.02;8.63;;;;;;;21.03;80.79;100756.52;1757915;81;21549;-68
2021/06/25 00:41:42;;;;;;;21.70;7.40;;;;;;;21.00;80.80;100759.48;1757978;81;20947;-69
2021/06/25 00:44:17;;;;;;;20.68;8.25;;;;;;;20.98;80.91;100753.97;1757987;81;20927;-68
2021/06/25 00:46:44;;;;;;;18.32;7.87;;;;;;;20.99;80.55;100749.83;1757874;81;21469;-68
2021/06/25 00:49:12;;;;;;;20.37;8.28;;;;;;;21.00;80.23;100747.48;1757958;81;20963;-67
2021/06/25 00:51:39;;;;;;;19.67;7.92;;;;;;;21.00;80.03;100746.16;1757983;81;21182;-68
2021/06/25 00:54:09;;;;;;;22.93;8.40;;;;;;;21.00;80.01;100744.81;1757795;81;21299;-69
2021/06/25 00:56:37;;;;;;;19.60;7.78;;;;;;;20.99;80.06;100744.49;1757677;81;20927;-68
2021/06/25 00:59:05;;;;;;;18.75;8.55;;;;;;;20.98;80.13;100754.80;1758081;81;20932;-68
2021/06/25 01:01:33;;;;;;;16.60;7.60;;;;;;;20.97;80.19;100757.14;1757872;81;21488;-68
2021/06/25 01:04:00;;;;;;;21.07;8.45;;;;;;;20.95;80.29;100754.30;1757978;81;21797;-67
2021/06/25 01:06:31;;;;;;;17.87;8.28;;;;;;;20.93;80.33;100756.28;1758098;81;20841;-68
2021/06/25 01:08:57;;;;;;;21.05;7.55;;;;;;;20.90;80.37;100750.77;1757719;80;20987;-68
2021/06/25 01:11:26;;;;;;;13.18;7.42;;;;;;;20.86;80.43;100740.90;1757982;81;21374;-68
2021/06/25 01:13:53;;;;;;;14.58;7.95;;;;;;;20.81;80.61;100741.87;1721798;83;20943;-68
2021/06/25 01:16:20;;;;;;;18.37;8.60;;;;;;;20.76;80.64;100744.15;1722124;83;21108;-68
2021/06/25 01:18:48;;;;;;;26.40;8.78;;;;;;;20.72;80.76;100745.95;1721938;83;20884;-68
2021/06/25 01:21:16;;;;;;;19.80;7.20;;;;;;;20.66;80.99;100746.92;1721969;83;20888;-69
2021/06/25 01:23:43;;;;;;;19.40;7.85;;;;;;;20.65;81.18;100745.26;1717044;83;20907;-68
2021/06/25 01:26:10;;;;;;;18.32;7.17;;;;;;;;;;1716753;83;20896;-68
2021/06/25 01:28:38;;;;;;;21.40;8.18;;;;;;;20.68;80.90;100739.61;1752478;82;21152;-67
2021/06/25 01:31:05;;;;;;;22.17;8.15;;;;;;;20.70;80.67;100735.47;1752501;82;20959;-67
2021/06/25 01:33:33;;;;;;;21.90;8.08;;;;;;;20.72;80.56;100739.28;1752577;80;20963;-67
2021/06/25 01:36:02;;;;;;;21.77;8.43;;;;;;;20.74;80.54;100743.97;1752553;82;20909;-67
2021/06/25 01:38:30;;;;;;;14.83;7.40;;;;;;;20.74;80.46;100742.13;1752575;82;20879;-67
2021/06/25 01:40:58;;;;;;;14.93;7.80;;;;;;;20.74;80.31;100745.30;1752544;82;21144;-67
2021/06/25 01:43:26;;;;;;;17.73;6.72;;;;;;;20.74;80.11;100742.63;1733476;82;21439;-68
2021/06/25 01:45:53;;;;;;;21.12;7.50;;;;;;;20.74;79.97;100737.30;1716498;83;20924;-68
2021/06/25 01:48:20;;;;;;;17.75;8.18;;;;;;;20.73;79.83;100739.14;1716477;83;21355;-67
2021/06/25 01:50:48;;;;;;;20.08;7.95;;;;;;;20.74;79.72;100731.97;1716594;83;20892;-67
2021/06/25 01:53:17;;;;;;;20.68;8.73;;;;;;;20.73;79.68;100730.31;1716497;83;21108;-67
2021/06/25 01:55:46;;;;;;;14.18;7.33;;;;;;;20.72;79.50;100727.30;1716426;83;20943;-67
2021/06/25 01:58:23;;;;;;;16.57;7.45;;;;;;;20.72;79.46;100727.30;1716436;83;20981;-67
2021/06/25 02:01:15;;;;;;;16.90;7.37;;;;;;;20.70;79.50;100729.63;1716128;83;20900;-68
2021/06/25 02:03:44;;;;;;;18.57;8.50;;;;;;;20.69;79.61;100727.94;1716715;83;20988;-68
2021/06/25 02:06:11;;;;;;;17.20;7.15;;;;;;;20.70;79.71;100726.97;1716392;83;21358;-68
2021/06/25 02:08:39;;;;;;;14.60;7.67;;;;;;;20.67;79.61;100723.26;1716448;83;20919;-68
2021/06/25 02:11:08;;;;;;;14.50;7.25;;;;;;;20.66;79.77;100716.27;1716415;83;20932;-68
2021/06/25 02:13:35;;;;;;;24.60;8.30;;;;;;;20.65;79.79;100713.75;1716652;82;21361;-68
2021/06/25 02:16:02;;;;;;;17.82;8.08;;;;;;;20.61;80.14;100712.38;1716502;83;20940;-67
2021/06/25 02:18:29;;;;;;;22.35;8.05;;;;;;;20.60;80.27;100712.89;1716645;83;21188;-68
2021/06/25 02:20:56;;;;;;;14.68;7.28;;;;;;;20.60;80.41;100707.56;1716516;82;20935;-68
2021/06/25 02:23:23;;;;;;;15.18;7.87;;;;;;;20.62;80.52;100710.91;1711725;83;20953;-68
2021/06/25 02:25:50;;;;;;;18.52;8.40;;;;;;;20.64;80.62;100701.44;1708882;84;21550;-67
2021/06/25 02:28:17;;;;;;;19.98;8.28;;;;;;;20.69;80.62;100702.63;1708768;84;20881;-68
2021/06/25 02:30:44;;;;;;;15.00;7.72;;;;;;;20.76;80.57;100698.01;1708786;84;21119;-68
2021/06/25 02:33:11;;;;;;;15.48;7.42;;;;;;;20.81;80.38;100696.56;1708734;84;21043;-67
2021/06/25 02:35:38;;;;;;;22.87;8.53;;;;;;;20.87;80.04;100697.75;1708806;84;20904;-68
2021/06/25 02:38:05;;;;;;;20.32;7.12;;;;;;;20.91;79.75;100689.27;1708776;84;20975;-68
2021/06/25 02:40:32;;;;;;;14.58;7.40;;;;;;;20.97;79.41;100694.48;1708698;82;20928;-68
2021/06/25 02:42:59;;;;;;;15.70;7.60;;;;;;;21.01;79.14;100692.32;1708788;84;21217;-67
2021/06/25 02:45:28;;;;;;;17.85;7.72;;;;;;;21.04;79.06;100688.02;1708616;82;20908;-67
2021/06/25 02:47:55;;;;;;;20.32;7.42;;;;;;;21.08;79.15;100694.72;1708788;84;20869;-68
2021/06/25 02:50:22;;;;;;;21.65;7.97;;;;;;;21.09;79.16;100693.20;1708759;84;20987;-67
2021/06/25 02:52:49;;;;;;;16.70;7.58;;;;;;;21.13;79.04;100692.91;1708707;82;20856;-68
2021/06/25 02:55:16;;;;;;;21.20;7.92;;;;;;;21.14;78.99;100685.23;1708792;84;21193;-68
2021/06/25 02:57:43;;;;;;;20.60;7.83;;;;;;;21.17;79.04;100685.76;1708730;84;20936;-69
2021/06/25 03:00:14;;;;;;;22.98;7.85;;;;;;;21.20;79.13;100686.77;1708693;84;21874;-70
2021/06/25 03:02:42;;;;;;;25.25;7.35;;;;;;;21.23;79.01;100685.59;1708725;84;20948;-69
2021/06/25 03:05:12;;;;;;;20.60;7.62;;;;;;;21.25;79.07;100689.77;1708903;83;20935;-68
2021/06/25 03:07:40;;;;;;;23.55;8.83;;;;;;;21.28;79.10;100685.47;1708807;84;21807;-69
2021/06/25 03:10:09;;;;;;;20.37;8.88;;;;;;;21.31;79.15;100683.80;1708882;84;20872;-67
2021/06/25 03:12:35;;;;;;;29.30;9.75;;;;;;;21.38;79.15;100687.17;1708663;82;21473;-68
2021/06/25 03:15:06;;;;;;;27.13;8.20;;;;;;;21.44;79.05;100690.57;1708910;82;20939;-68
2021/06/25 03:17:33;;;;;;;21.10;7.00;;;;;;;21.47;78.92;100680.89;1708698;84;20940;-67
2021/06/25 03:20:01;;;;;;;20.27;6.55;;;;;;;21.50;78.65;100678.75;1708795;83;21097;-67
2021/06/25 03:22:28;;;;;;;24.27;7.35;;;;;;;21.55;78.51;100676.92;1709318;83;20885;-67
2021/06/25 03:24:55;;;;;;;25.00;7.67;;;;;;;21.62;78.25;100678.45;1716398;83;20919;-67
2021/06/25 03:27:22;;;;;;;25.52;8.13;;;;;;;21.69;77.96;100666.11;1716413;82;21421;-67
2021/06/25 03:29:50;;;;;;;27.95;6.87;;;;;;;21.76;77.75;100659.12;1716382;83;20881;-67
2021/06/25 03:32:17;;;;;;;15.40;6.95;;;;;;;21.82;77.60;100666.48;1716378;82;21129;-68
2021/06/25 03:37:31;;;;;;;18.40;7.50;;;;;;;22.06;77.43;100657.66;1798586;79;22623;-68
2021/06/25 03:39:58;;;;;;;18.45;7.08;;;;;;;22.11;77.21;100658.50;1758416;81;20892;-68
2021/06/25 03:42:25;;;;;;;23.38;7.03;;;;;;;22.18;76.97;100656.82;1758381;81;21785;-67
2021/06/25 03:44:52;;;;;;;17.67;7.62;;;;;;;22.25;76.55;100659.19;1758302;81;20841;-67
2021/06/25 03:47:19;;;;;;;20.75;6.97;;;;;;;22.29;76.37;100655.18;1758348;80;20845;-67
2021/06/25 03:49:46;;;;;;;17.73;7.05;;;;;;;22.37;76.30;100654.84;1758222;81;20979;-67
2021/06/25 03:52:13;;;;;;;17.62;7.15;;;;;;;22.45;76.12;100659.67;1758290;81;20980;-67
2021/06/25 03:54:40;;;;;;;17.02;8.45;;;;;;;22.52;75.85;100654.02;1758384;80;21209;-68
2021/06/25 03:57:07;;;;;;;26.73;7.85;;;;;;;22.62;75.64;100655.16;1758224;81;20971;-68
2021/06/25 03:59:35;;;;;;;16.00;7.05;;;;;;;22.75;75.44;100653.30;1758355;81;20888;-67
2021/06/25 04:02:03;;;;;;;13.83;6.55;;;;;;;22.88;75.20;100651.44;1758321;81;20853;-67
2021/06/25 04:04:30;;;;;;;13.40;6.75;;;;;;;22.99;75.06;100645.71;1758228;81;20927;-67
2021/06/25 04:06:57;;;;;;;14.68;7.33;;;;;;;23.12;74.81;100642.02;1758320;81;21144;-67
2021/06/25 04:09:24;;;;;;;14.18;6.28;;;;;;;23.26;74.63;100637.77;1758271;80;20947;-67
2021/06/25 04:11:54;;;;;;;17.02;7.25;;;;;;;23.48;74.03;100642.84;1758301;81;20924;-67
2021/06/25 04:14:21;;;;;;;16.48;6.92;;;;;;;23.80;73.52;100647.69;1758189;81;20939;-67
2021/06/25 04:16:47;;;;;;;12.63;6.10;;;;;;;24.18;72.65;100639.17;1758324;81;20932;-67
2021/06/25 04:19:14;;;;;;;17.52;6.92;;;;;;;24.68;71.59;100638.25;1758505;81;21979;-67
2021/06/25 04:21:42;;;;;;;15.35;6.72;;;;;;;25.21;69.96;100647.54;1758447;81;21406;-68
2021/06/25 04:24:09;;;;;;;16.75;6.53;;;;;;;25.72;68.54;100637.27;1758427;81;20873;-69
2021/06/25 04:26:38;;;;;;;22.90;8.13;;;;;;;26.21;66.77;100639.20;1758258;81;20948;-67
2021/06/25 04:29:11;;;;;;;28.07;8.00;;;;;;;26.67;65.18;100630.67;1758323;81;20991;-68
2021/06/25 04:31:46;;;;;;;12.85;7.08;;;;;;;27.09;64.19;100635.03;1758543;81;21997;-68
2021/06/25 04:34:10;;;;;;;11.43;7.00;;;;;;;27.46;63.00;100630.24;1757934;81;20845;-69
2021/06/25 04:36:37;;;;;;;16.85;7.28;;;;;;;27.81;61.77;100631.96;1750725;81;21554;-70
2021/06/25 04:39:05;;;;;;;15.28;6.50;;;;;;;28.15;60.92;100631.48;1745200;82;20905;-70
2021/06/25 04:41:34;;;;;;;14.93;6.45;;;;;;;28.51;59.79;100627.88;1745192;82;21033;-68
2021/06/25 04:44:01;;;;;;;15.50;6.78;;;;;;;28.89;58.66;100629.86;1745138;80;21817;-68
2021/06/25 04:46:28;;;;;;;17.27;6.72;;;;;;;29.23;58.19;100627.06;1745081;82;20920;-67
2021/06/25 04:48:57;;;;;;;16.50;7.17;;;;;;;29.58;56.96;100617.21;1738329;82;20920;-68
2021/06/25 04:51:24;;;;;;;25.97;7.75;;;;;;;29.89;56.29;100600.18;1744565;82;21031;-68
2021/06/25 04:53:52;;;;;;;16.97;7.42;;;;;;;30.23;55.42;100592.59;1744704;81;20866;-67
2021/06/25 04:56:20;;;;;;;18.37;8.80;;;;;;;30.44;54.33;100585.45;1744855;81;22005;-68
2021/06/25 04:58:48;;;;;;;22.37;7.35;;;;;;;30.60;53.81;100590.80;1744945;81;20925;-67
2021/06/25 05:01:15;;;;;;;19.32;7.37;;;;;;;30.77;53.66;100586.94;1744654;82;20925;-68
2021/06/25 05:03:42;;;;;;;13.43;7.03;;;;;;;30.97;53.48;100593.50;1744513;82;20897;-68
2021/06/25 05:06:09;;;;;;;20.00;7.70;;;;;;;31.24;53.07;100588.59;1744650;81;20889;-67
2021/06/25 05:08:36;;;;;;;18.48;7.33;;;;;;;31.51;52.27;100584.17;1744695;82;21143;-68
2021/06/25 05:11:03;;;;;;;13.28;6.75;;;;;;;31.71;51.63;100590.64;1744600;81;20949;-67
2021/06/25 05:13:30;;;;;;;19.95;7.37;;;;;;;31.92;51.12;100585.17;1744671;81;20921;-68
2021/06/25 05:15:57;;;;;;;17.62;7.53;;;;;;;32.09;50.21;100585.35;1744577;81;20917;-67
2021/06/25 05:18:25;;;;;;;14.98;7.08;;;;;;;32.28;49.67;100581.97;1744623;82;20995;-68
2021/06/25 05:20:52;;;;;;;23.10;7.72;;;;;;;32.54;49.55;100582.05;1744799;82;21751;-68
2021/06/25 05:23:19;;;;;;;16.48;6.62;;;;;;;32.84;49.10;100581.87;1744568;82;20909;-68
2021/06/25 05:25:46;;;;;;;18.55;6.72;;;;;;;33.11;48.20;100570.47;1744547;82;20932;-68
2021/06/25 05:28:13;;;;;;;16.55;6.60;;;;;;;33.40;47.45;100584.32;1744928;82;20943;-69
2021/06/25 05:30:41;;;;;;;18.42;7.28;;;;;;;33.62;47.26;100579.56;1744585;81;21375;-69
2021/06/25 05:33:08;;;;;;;13.22;6.90;;;;;;;33.87;46.67;100575.07;1744939;82;21097;-69
2021/06/25 05:35:35;;;;;;;16.93;8.13;;;;;;;34.16;45.79;100578.53;1744541;82;20917;-70
2021/06/25 05:38:08;;;;;;;14.10;6.83;;;;;;;34.43;45.28;100571.83;1744456;82;20885;-70
2021/06/25 05:40:37;;;;;;;12.78;6.67;;;;;;;34.69;44.28;100565.94;1744645;81;20976;-70
2021/06/25 05:43:04;;;;;;;21.00;6.75;;;;;;;34.88;43.88;100571.31;1744964;82;20972;-69
2021/06/25 05:45:32;;;;;;;13.75;6.62;;;;;;;35.03;43.61;100566.59;1744601;81;21530;-69
2021/06/25 05:48:00;;;;;;;17.40;6.05;;;;;;;35.17;43.36;100568.39;1744875;82;20873;-69
2021/06/25 05:50:27;;;;;;;18.65;6.45;;;;;;;35.24;43.49;100569.00;1744615;82;20893;-69
2021/06/25 05:52:54;;;;;;;14.15;7.25;;;;;;;35.37;43.29;100571.31;1744774;82;20909;-69
2021/06/25 05:55:21;;;;;;;14.38;5.92;;;;;;;35.53;42.47;100573.66;1744637;82;20869;-67
2021/06/25 05:57:50;;;;;;;13.80;6.10;;;;;;;35.64;41.87;100570.48;1744806;82;21108;-68
2021/06/25 06:00:18;;;;;;;9.93;5.92;;;;;;;35.83;41.78;100568.19;1744744;81;20945;-68
2021/06/25 06:02:45;;;;;;;12.05;5.55;;;;;;;36.02;41.54;100565.34;1744776;82;20933;-68
2021/06/25 06:05:12;;;;;;;12.63;5.92;;;;;;;36.23;40.76;100560.84;1744593;80;20932;-68
2021/06/25 06:07:40;;;;;;;14.55;5.53;;;;;;;36.43;40.59;100553.84;1744860;81;21450;-68
2021/06/25 06:10:09;;;;;;;13.83;6.47;;;;;;;36.66;39.93;100552.06;1744674;82;21147;-68
2021/06/25 06:12:36;;;;;;;18.70;6.08;;;;;;;36.73;39.43;100551.81;1744618;82;20948;-68
2021/06/25 06:15:07;;;;;;;11.75;6.65;;;;;;;36.79;39.65;100557.55;1744593;81;20976;-68
2021/06/25 06:17:40;;;;;;;11.12;6.90;;;;;;;36.90;39.21;100557.86;1744494;82;21023;-68
2021/06/25 06:20:10;;;;;;;7.72;6.05;;;;;;;37.01;38.78;100559.27;1744847;82;21469;-70
2021/06/25 06:31:18;;;;;;;8.28;5.85;;;;;;;37.24;38.21;100553.33;1744852;81;21015;-69
2021/06/25 06:33:42;;;;;;;6.62;5.40;;;;;;;37.22;37.64;100554.67;1744311;81;20928;-70
2021/06/25 06:36:21;;;;;;;12.07;5.03;;;;;;;37.20;37.61;100554.96;1744601;81;21095;-69
2021/06/25 06:38:45;;;;;;;9.78;6.15;;;;;;;37.17;37.12;100551.94;1757348;81;20916;-68
2021/06/25 06:41:13;;;;;;;13.25;6.33;;;;;;;37.18;37.41;100561.80;1757940;81;21421;-69
2021/06/25 06:43:41;;;;;;;11.95;5.65;;;;;;;37.23;38.45;100554.41;1758040;81;20936;-69
2021/06/25 06:46:09;;;;;;;9.25;6.17;;;;;;;37.34;37.85;100558.80;1758043;81;20920;-69
2021/06/25 06:48:38;;;;;;;7.72;5.50;;;;;;;37.50;37.59;100557.44;1757834;81;21150;-69
2021/06/25 06:51:05;;;;;;;14.15;5.83;;;;;;;37.68;38.17;100559.64;1757761;81;20955;-68
2021/06/25 06:53:34;;;;;;;12.15;6.28;;;;;;;37.63;36.90;100559.66;1757827;81;20920;-69
2021/06/25 06:56:01;;;;;;;11.43;6.60;;;;;;;37.45;37.13;100551.41;1757823;81;20920;-68
2021/06/25 06:58:28;;;;;;;12.50;6.87;;;;;;;37.35;37.79;100552.77;1757934;81;20920;-69
2021/06/25 07:00:55;;;;;;;12.18;6.47;;;;;;;37.39;38.19;100547.03;1758108;80;21441;-69
2021/06/25 07:03:22;;;;;;;11.48;5.70;;;;;;;37.42;38.24;100549.23;1757796;81;20849;-69
2021/06/25 07:05:49;;;;;;;11.60;5.95;;;;;;;37.56;38.26;100546.80;1758125;81;21478;-69
2021/06/25 07:08:16;;;;;;;10.38;5.72;;;;;;;37.83;37.77;100548.42;1757828;80;21585;-69
2021/06/25 07:10:42;;;;;;;10.98;6.12;;;;;;;38.03;36.97;100551.14;1758005;81;20841;-69
2021/06/25 07:13:09;;;;;;;10.53;6.25;;;;;;;38.10;36.83;100549.48;1758231;81;21350;-69
2021/06/25 07:15:37;;;;;;;13.60;5.40;;;;;;;38.02;37.36;100551.41;1757996;81;20888;-68
2021/06/25 07:18:04;;;;;;;9.15;5.67;;;;;;;37.99;36.86;100547.84;1757875;81;20928;-71
2021/06/25 07:20:32;;;;;;;17.05;5.62;;;;;;;38.12;37.41;100545.92;1757601;81;20893;-71
2021/06/25 07:23:00;;;;;;;16.20;5.70;;;;;;;38.11;37.31;100551.95;1758128;81;20920;-72
2021/06/25 07:25:27;;;;;;;11.20;4.90;;;;;;;38.10;36.85;100548.12;1757617;81;21124;-73
2021/06/25 07:27:54;;;;;;;9.93;5.58;;;;;;;37.89;37.05;100556.91;1757985;80;20995;-72
2021/06/25 07:30:21;;;;;;;16.15;5.87;;;;;;;37.65;38.21;100551.17;1757844;81;20936;-71
2021/06/25 07:32:48;;;;;;;25.35;9.55;;;;;;;37.43;38.38;100554.97;1757471;80;20872;-70
2021/06/25 07:35:15;;;;;;;10.78;6.62;;;;;;;37.16;38.31;100553.05;1757930;80;21469;-71
2021/06/25 07:37:41;;;;;;;9.78;6.50;;;;;;;36.81;38.19;100556.74;1750871;80;21092;-71
2021/06/25 07:40:10;;;;;;;11.05;6.08;;;;;;;36.47;39.20;100559.87;1744538;82;20885;-70
2021/06/25 07:42:37;;;;;;;12.70;5.87;;;;;;;36.27;40.22;100557.86;1744478;81;20933;-72
2021/06/25 07:45:09;;;;;;;8.98;6.28;;;;;;;36.09;40.60;100558.27;1744483;82;21504;-72
2021/06/25 07:47:41;;;;;;;18.92;7.37;;;;;;;35.95;41.09;100557.89;1744587;82;20941;-72
2021/06/25 07:50:11;;;;;;;16.53;6.73;;;;;;;35.82;41.41;100557.83;1744682;80;21950;-70
2021/06/25 07:52:38;;;;;;;11.43;6.62;;;;;;;35.68;41.84;100562.87;1744379;82;21315;-71
2021/06/25 07:55:07;;;;;;;11.00;5.85;;;;;;;35.58;42.63;100570.97;1744528;81;20913;-71
2021/06/25 07:57:34;;;;;;;16.48;5.78;;;;;;;35.54;42.68;100571.75;1744662;80;20976;-71
2021/06/25 08:00:01;;;;;;;14.50;5.80;;;;;;;35.45;42.62;100562.67;1744587;82;20881;-73
2021/06/25 08:02:27;;;;;;;15.40;6.20;;;;;;;35.36;42.74;100571.59;1744753;82;21130;-71
2021/06/25 08:04:54;;;;;;;8.40;4.80;;;;;;;35.23;42.74;100566.82;1744391;81;21031;-72
2021/06/25 08:07:21;;;;;;;6.83;5.03;;;;;;;35.24;43.52;100563.55;1744866;82;20928;-72
2021/06/25 08:09:49;;;;;;;5.80;5.20;;;;;;;35.51;43.90;100563.55;1744502;81;20905;-72
2021/06/25 08:12:17;;;;;;;16.02;5.58;;;;;;;35.81;43.61;100557.53;1708721;83;20876;-73
2021/06/25 08:14:44;;;;;;;14.95;5.72;;;;;;;36.27;42.36;100559.77;1708892;84;21149;-72
2021/06/25 08:17:10;;;;;;;9.38;4.58;;;;;;;36.67;42.00;100556.98;1708823;82;20924;-72
2021/06/25 08:19:37;;;;;;;10.45;4.87;;;;;;;37.08;40.46;100557.11;1708743;82;20967;-72
2021/06/25 08:22:04;;;;;;;7.67;4.53;;;;;;;37.33;39.25;100549.48;1708869;84;21007;-71
2021/06/25 08:24:34;;;;;;;11.90;5.05;;;;;;;37.56;39.27;100548.17;1708887;84;20853;-72
2021/06/25 08:27:01;;;;;;;7.58;4.12;;;;;;;37.72;38.37;100542.13;1708799;84;21805;-72
2021/06/25 08:29:29;;;;;;;8.75;5.22;;;;;;;37.79;37.78;100539.11;1708976;84;20916;-70
2021/06/25 08:31:56;;;;;;;7.65;3.92;;;;;;;37.91;37.33;100541.84;1709053;83;21006;-71
2021/06/25 08:34:24;;;;;;;8.53;4.03;;;;;;;38.13;37.87;100544.28;1708821;83;21457;-71
2021/06/25 08:36:51;;;;;;;10.63;4.37;;;;;;;38.38;37.57;100540.34;1708717;83;21362;-72
2021/06/25 08:39:19;;;;;;;10.25;4.50;;;;;;;38.57;35.87;100534.55;1708886;84;21150;-71
2021/06/25 08:41:46;;;;;;;11.12;4.10;;;;;;;38.71;34.49;100533.37;1708745;84;20936;-71
2021/06/25 08:44:13;;;;;;;10.70;3.25;;;;;;;38.74;35.07;100535.56;1708760;84;20924;-72
2021/06/25 08:46:45;;;;;;;8.73;3.80;;;;;;;38.85;34.69;100534.41;1708836;84;20948;-71
2021/06/25 08:49:12;;;;;;;9.55;4.37;;;;;;;38.87;35.19;100532.20;1744752;81;20889;-70
2021/06/25 08:51:44;;;;;;;13.13;3.85;;;;;;;38.89;34.94;100526.44;1744548;82;21549;-70
2021/06/25 08:54:08;;;;;;;8.63;3.60;;;;;;;38.81;34.59;100524.28;1744273;81;20893;-70
2021/06/25 08:56:35;;;;;;;13.80;3.75;;;;;;;38.81;34.75;100522.91;1744569;81;21426;-70
2021/06/25 08:59:02;;;;;;;9.05;3.75;;;;;;;38.76;34.13;100523.77;1744632;82;20964;-71
2021/06/25 09:01:35;;;;;;;7.87;3.60;;;;;;;38.70;34.40;100522.15;1744599;81;20885;-71
2021/06/25 09:04:01;;;;;;;5.62;3.27;;;;;;;38.61;34.51;100521.11;1744518;82;21339;-71
2021/06/25 09:06:28;;;;;;;8.78;3.52;;;;;;;38.45;34.32;100515.66;1744794;81;20893;-71
2021/06/25 09:09:12;;;;;;;9.93;4.17;;;;;;;38.32;35.00;100521.75;1744636;81;20881;-71
2021/06/25 09:11:43;;;;;;;7.80;3.22;;;;;;;38.17;35.18;100523.98;1744756;81;20936;-72
2021/06/25 09:14:10;;;;;;;15.23;5.62;;;;;;;38.10;34.72;100519.36;1744571;80;20889;-72
2021/06/25 09:16:39;;;;;;;11.63;3.98;;;;;;;38.01;34.50;100520.44;1743129;80;20992;-72
2021/06/25 09:19:16;;;;;;;8.78;3.62;;;;;;;37.85;34.90;100518.85;1744515;82;20940;-72
2021/06/25 09:22:01;;;;;;;11.68;3.22;;;;;;;37.71;35.58;100511.20;1744859;82;21418;-74
2021/06/25 09:24:28;;;;;;;63.75;8.78;;;;;;;37.51;35.76;100509.84;1744617;82;20925;-75
2021/06/25 09:27:04;;;;;;;7.97;3.17;;;;;;;37.24;36.13;100508.20;1744875;82;21470;-73
2021/06/25 09:29:34;;;;;;;6.08;2.65;;;;;;;37.09;36.09;100517.20;1744572;82;21174;-74
2021/06/25 09:32:07;;;;;;;15.75;3.42;;;;;;;37.04;36.32;100520.42;1709070;82;21358;-74
2021/06/25 09:34:41;;;;;;;7.55;2.80;;;;;;;36.96;35.97;100514.15;1708812;82;21023;-75
2021/06/25 09:37:12;;;;;;;8.73;2.40;;;;;;;37.04;36.40;100511.70;1708424;83;20916;-73
2021/06/25 09:39:44;;;;;;;9.03;3.12;;;;;;;37.20;35.45;100508.98;1708775;84;20908;-72
2021/06/25 09:42:21;;;;;;;9.58;2.67;;;;;;;37.44;34.55;100503.80;1706692;83;21147;-73
2021/06/25 09:45:05;;;;;;;11.20;2.22;;;;;;;37.67;34.53;100506.56;1708714;84;20963;-72
2021/06/25 09:47:41;;;;;;;11.30;2.45;;;;;;;37.98;34.72;100503.77;1708677;84;20892;-71
2021/06/25 09:50:16;;;;;;;6.53;2.50;;;;;;;38.35;34.02;100498.73;1708743;82;20841;-70
2021/06/25 09:52:58;;;;;;;7.37;2.20;;;;;;;38.72;32.57;100499.39;1708837;82;20888;-71
2021/06/25 09:55:48;;;;;;;6.92;2.40;;;;;;;38.95;31.74;100500.63;1708534;84;22039;-69
2021/06/25 09:58:25;;;;;;;7.60;2.72;;;;;;;39.18;31.62;100498.55;1708015;83;20900;-70
2021/06/25 10:03:51;;;;;;;28.95;4.12;;;;;;;39.40;31.35;100499.21;1708744;84;20860;-70
2021/06/25 10:06:22;;;;;;;8.85;2.83;;;;;;;39.33;30.84;100500.88;1708784;82;20908;-70
2021/06/25 10:08:49;;;;;;;13.62;2.62;;;;;;;39.21;30.59;100496.34;1708842;84;21224;-71
2021/06/25 10:11:18;;;;;;;11.90;2.50;;;;;;;39.10;31.42;100499.15;1708999;84;20938;-70
2021/06/25 10:13:45;;;;;;;7.55;2.37;;;;;;;39.11;31.17;100495.84;1708815;84;21451;-71
2021/06/25 10:16:12;;;;;;;6.03;2.17;;;;;;;39.20;30.73;100489.20;1708886;82;20845;-72
2021/06/25 10:18:51;;;;;;;25.45;3.47;;;;;;;39.22;29.87;100493.84;1709262;82;21342;-72
2021/06/25 10:21:20;;;;;;;15.78;2.42;;;;;;;39.27;29.28;100492.45;1709178;84;21802;-72
2021/06/25 10:23:50;;;;;;;13.58;3.25;;;;;;;39.31;27.02;100486.09;1708704;84;20940;-72
2021/06/25 10:26:19;;;;;;;17.10;2.67;;;;;;;39.31;26.84;100487.47;1744430;81;20901;-73
2021/06/25 10:28:50;;;;;;;21.75;3.80;;;;;;;39.40;26.52;100492.34;1744496;81;20933;-73
2021/06/25 10:31:21;;;;;;;10.05;2.25;;;;;;;39.47;25.80;100484.63;1744517;81;20964;-73
2021/06/25 10:33:49;;;;;;;26.17;4.47;;;;;;;39.64;26.31;100484.16;1736746;82;21118;-73
2021/06/25 10:36:19;;;;;;;19.82;3.83;;;;;;;39.81;25.70;100491.40;1736270;82;20933;-74
2021/06/25 10:38:46;;;;;;;13.75;2.98;;;;;;;39.97;25.31;100487.39;1741219;81;21458;-73
2021/06/25 10:41:16;;;;;;;28.38;5.12;;;;;;;40.08;24.43;100481.23;1750136;82;20940;-72
2021/06/25 10:43:52;;;;;;;15.75;3.42;;;;;;;40.12;22.85;100503.45;1750247;82;20852;-72
2021/06/25 10:46:34;;;;;;;18.00;3.60;;;;;;;40.03;22.90;100489.54;1750316;82;21107;-73
2021/06/25 10:49:14;;;;;;;9.88;2.90;;;;;;;39.96;24.41;100496.76;1749343;82;20885;-73
2021/06/25 10:51:43;;;;;;;10.85;3.02;;;;;;;39.96;25.77;100486.33;1750319;82;20896;-72
2021/06/25 10:54:18;;;;;;;19.80;4.15;;;;;;;40.08;25.92;100489.47;1749959;82;20947;-73
2021/06/25 10:56:53;;;;;;;16.45;3.33;;;;;;;40.10;25.65;100492.74;1750054;80;20936;-73
2021/06/25 10:59:28;;;;;;;12.37;3.77;;;;;;;40.14;26.34;100495.73;1749135;82;21157;-72
2021/06/25 11:02:00;;;;;;;14.33;3.10;;;;;;;40.22;26.31;100495.06;1750014;80;20924;-73
2021/06/25 11:04:39;;;;;;;22.27;4.75;;;;;;;40.23;26.11;100484.34;1749966;82;20887;-73
2021/06/25 11:07:31;;;;;;;14.35;3.65;;;;;;;40.20;26.29;100480.83;1750125;82;20896;-73
2021/06/25 11:10:01;;;;;;;14.87;3.87;;;;;;;40.15;24.32;100488.55;1747481;82;20884;-73
2021/06/25 11:12:36;;;;;;;18.82;3.60;;;;;;;40.05;23.45;100472.77;1750274;82;21147;-74
2021/06/25 11:15:09;;;;;;;9.43;2.98;;;;;;;39.96;25.10;100482.21;1749963;82;21551;-73
2021/06/25 11:18:00;;;;;;;12.63;3.33;;;;;;;39.79;26.09;100487.56;1750135;82;21394;-72
2021/06/25 11:20:34;;;;;;;14.07;3.33;;;;;;;39.62;26.63;100488.56;1750395;82;20916;-71
2021/06/25 11:23:13;;;;;;;11.60;3.33;;;;;;;39.48;25.63;100484.31;1750104;82;21330;-72
2021/06/25 11:26:02;;;;;;;14.73;2.27;;;;;;;39.42;26.08;100483.28;1750329;82;21779;-71
2021/06/25 11:28:37;;;;;;;11.57;2.65;;;;;;;39.32;26.97;100482.23;1750055;81;20880;-70
2021/06/25 11:31:18;;;;;;;6.97;2.77;;;;;;;39.14;27.59;100478.27;1749678;80;21018;-70
2021/06/25 11:33:56;;;;;;;12.45;3.37;;;;;;;38.91;27.86;100473.47;1750050;82;21433;-71
2021/06/25 11:36:52;;;;;;;14.10;3.10;;;;;;;38.66;28.05;100475.84;1750123;80;20924;-71
2021/06/25 11:39:33;;;;;;;14.78;2.50;;;;;;;38.38;27.97;100466.36;1749944;81;21185;-72
2021/06/25 11:42:14;;;;;;;13.45;2.98;;;;;;;38.05;28.04;100466.80;1749937;80;20935;-70
2021/06/25 11:44:49;;;;;;;5.72;2.77;;;;;;;37.80;28.25;100472.30;1750033;82;20940;-72